Time;durP1;ratioP1;P1;durP2;ratioP2;P2;SDS_P1;SDS_P2;PMS_P1;PMS_P2;Temp;Humidity;BMP_temperature;BMP_pressure;BME280_temperature;BME280_humidity;BME280_pressure;Samples;Min_cycle;Max_cycle;Signal;HPM_P1;HPM_P2
2023/07/11 00:02:10;;;;;;;13.63;11.60;;;;;;;19.74;92.95;101311.38;4888587;29;20435;-69
2023/07/11 00:04:39;;;;;;;16.50;15.00;;;;;;;19.67;93.93;101321.69;4887643;29;20455;-69
2023/07/11 00:07:08;;;;;;;17.13;15.53;;;;;;;19.74;92.50;101317.69;4888495;29;20470;-69
2023/07/11 00:09:41;;;;;;;14.70;13.50;;;;;;;19.81;92.87;101318.31;4887423;29;20451;-69
2023/07/11 00:12:11;;;;;;;12.37;11.33;;;;;;;19.77;91.81;101316.34;4889309;29;20495;-68
2023/07/11 00:14:40;;;;;;;17.47;15.73;;;;;;;19.76;93.09;101310.00;4883702;29;20478;-68
2023/07/11 00:17:10;;;;;;;13.23;12.00;;;;;;;19.61;92.96;101308.94;4880449;29;20481;-68
2023/07/11 00:19:48;;;;;;;14.70;13.50;;;;;;;19.46;94.94;101315.06;4881024;29;20406;-68
2023/07/11 00:22:18;;;;;;;13.57;12.47;;;;;;;19.49;95.13;101311.81;4882243;29;20495;-67
2023/07/11 00:24:49;;;;;;;11.63;10.63;;;;;;;19.70;93.90;101322.03;4879379;29;20451;-68
2023/07/11 00:27:23;;;;;;;12.37;11.30;;;;;;;19.75;92.86;101316.59;4881552;29;20484;-68
2023/07/11 00:29:53;;;;;;;12.53;11.43;;;;;;;19.39;94.27;101306.97;4882366;29;20417;-68
2023/07/11 00:32:23;;;;;;;12.43;11.43;;;;;;;19.20;95.94;101304.72;4884098;29;20518;-68
2023/07/11 00:34:52;;;;;;;13.07;11.77;;;;;;;19.48;95.36;101308.25;4883929;29;20418;-67
2023/07/11 00:37:21;;;;;;;13.60;12.40;;;;;;;19.40;94.70;101311.38;4880938;29;20532;-68
2023/07/11 00:39:52;;;;;;;13.90;12.00;;;;;;;19.75;94.08;101313.03;4891113;29;20490;-68
2023/07/11 00:42:22;;;;;;;12.77;11.63;;;;;;;19.94;91.98;101314.41;4883097;29;20982;-68
2023/07/11 00:44:55;;;;;;;11.60;10.60;;;;;;;20.17;90.58;101313.31;4883656;29;20511;-68
2023/07/11 00:47:26;;;;;;;13.17;12.10;;;;;;;19.98;89.51;101307.31;4880727;29;20461;-68
2023/07/11 00:50:01;;;;;;;12.70;11.70;;;;;;;19.73;91.04;101309.69;4886371;29;20958;-68
2023/07/11 00:52:31;;;;;;;14.27;12.90;;;;;;;20.03;90.68;101312.88;4879204;29;20425;-69
2023/07/11 00:55:05;;;;;;;13.70;12.50;;;;;;;19.64;92.13;101309.31;4879031;29;20988;-68
2023/07/11 00:57:38;;;;;;;12.13;11.00;;;;;;;20.04;90.99;101303.56;4882209;29;20974;-68
2023/07/11 01:00:10;;;;;;;11.20;10.23;;;;;;;20.18;89.81;101301.25;4881711;29;20406;-69
2023/07/11 01:02:39;;;;;;;13.57;12.37;;;;;;;20.21;89.47;101300.72;4883961;29;21077;-68
2023/07/11 01:05:09;;;;;;;11.63;10.43;;;;;;;20.14;89.30;101306.41;4882854;29;20436;-69
2023/07/11 01:07:39;;;;;;;12.60;11.50;;;;;;;19.95;90.32;101296.81;4884071;29;21018;-69
2023/07/11 01:10:34;;;;;;;11.87;10.77;;;;;;;20.07;89.74;101305.78;4876661;29;20416;-69
2023/07/11 01:13:05;;;;;;;13.23;11.87;;;;;;;19.92;90.44;101300.91;4876462;29;20450;-68
2023/07/11 01:15:34;;;;;;;11.37;10.27;;;;;;;19.89;90.45;101306.09;4880087;29;20482;-68
2023/07/11 01:18:03;;;;;;;11.00;10.00;;;;;;;19.74;90.77;101303.13;4881537;29;20446;-70
2023/07/11 01:20:32;;;;;;;12.57;11.30;;;;;;;19.56;92.31;101315.19;4876178;29;20442;-67
2023/07/11 01:23:04;;;;;;;11.37;10.17;;;;;;;19.49;93.19;101307.16;4887358;29;20441;-69
2023/07/11 01:25:34;;;;;;;12.30;11.33;;;;;;;19.40;94.16;101305.88;4887560;29;20522;-68
2023/07/11 01:28:03;;;;;;;12.90;11.80;;;;;;;19.12;95.54;101311.47;4888442;29;20526;-69
2023/07/11 01:30:32;;;;;;;12.77;11.63;;;;;;;19.07;96.16;101316.88;4881836;29;20418;-68
2023/07/11 01:33:01;;;;;;;11.50;10.50;;;;;;;19.27;96.01;101310.84;4875610;29;20504;-69
2023/07/11 01:35:31;;;;;;;12.53;11.10;;;;;;;19.14;95.67;101309.28;4883618;29;20413;-69
2023/07/11 01:38:00;;;;;;;13.40;10.93;;;;;;;19.09;97.11;101314.69;4880359;29;20485;-69
2023/07/11 01:40:30;;;;;;;13.10;11.80;;;;;;;19.42;95.06;101308.38;4877156;29;20422;-69
2023/07/11 01:42:59;;;;;;;15.60;11.67;;;;;;;19.43;93.55;101305.38;4873618;29;20431;-69
2023/07/11 01:45:29;;;;;;;13.40;12.33;;;;;;;19.10;95.68;101302.63;4900129;23;20581;-63
2023/07/11 01:48:00;;;;;;;15.97;12.50;;;;;;;19.03;97.13;101305.53;4900543;29;21026;-64
2023/07/11 01:50:31;;;;;;;13.10;11.73;;;;;;;18.70;98.40;101310.13;4900057;29;20555;-64
2023/07/11 01:53:03;;;;;;;12.73;11.60;;;;;;;19.36;95.52;101304.72;4897108;29;20433;-61
2023/07/11 01:55:34;;;;;;;12.67;11.37;;;;;;;18.94;96.30;101301.53;4896262;29;20434;-62
2023/07/11 01:58:04;;;;;;;12.90;11.47;;;;;;;18.98;97.19;101302.69;4896907;29;20448;-62
2023/07/11 02:00:32;;;;;;;16.77;12.30;;;;;;;18.67;97.42;101306.81;4897737;29;20425;-63
2023/07/11 02:03:02;;;;;;;13.50;10.80;;;;;;;18.99;97.03;101298.06;4900955;29;20453;-59
2023/07/11 02:05:31;;;;;;;14.20;12.80;;;;;;;19.18;95.43;101304.97;4898468;29;20434;-61
2023/07/11 02:08:00;;;;;;;11.97;10.87;;;;;;;19.20;95.39;101308.31;4899219;29;20439;-62
2023/07/11 02:10:29;;;;;;;12.23;11.13;;;;;;;19.31;94.49;101306.56;4902486;29;20755;-64
2023/07/11 02:13:00;;;;;;;12.70;11.53;;;;;;;19.15;94.87;101302.72;4897106;29;20494;-61
2023/07/11 02:15:41;;;;;;;13.30;11.83;;;;;;;19.18;94.66;101304.13;4888019;29;20438;-63
2023/07/11 02:18:10;;;;;;;11.73;10.50;;;;;;;19.21;95.34;101312.72;4894897;29;20459;-62
2023/07/11 02:20:43;;;;;;;12.23;11.13;;;;;;;18.94;95.34;101308.94;4894794;29;20421;-63
2023/07/11 02:23:13;;;;;;;13.33;11.90;;;;;;;18.89;96.48;101303.34;4899038;29;20452;-60
2023/07/11 02:25:43;;;;;;;16.73;12.33;;;;;;;18.65;98.44;101300.75;4906854;29;20419;-58
2023/07/11 02:28:13;;;;;;;12.23;11.03;;;;;;;18.80;97.83;101304.84;4903792;29;20516;-62
2023/07/11 02:30:43;;;;;;;14.03;12.53;;;;;;;18.67;98.18;101306.81;4902708;29;20417;-61
2023/07/11 02:33:12;;;;;;;15.10;12.60;;;;;;;18.59;99.15;101303.63;4898662;29;20969;-62
2023/07/11 02:35:41;;;;;;;12.97;11.70;;;;;;;19.12;96.36;101302.41;4898415;29;20910;-62
2023/07/11 02:38:10;;;;;;;12.50;11.50;;;;;;;19.08;95.71;101304.78;4898948;29;20818;-62
2023/07/11 02:40:39;;;;;;;11.90;10.83;;;;;;;19.03;96.11;101304.69;4896570;29;20520;-63
2023/07/11 02:43:08;;;;;;;12.57;11.50;;;;;;;18.86;96.49;101304.69;4896484;29;20409;-64
2023/07/11 02:45:38;;;;;;;14.47;12.93;;;;;;;18.95;96.05;101296.88;4897202;29;20511;-59
2023/07/11 02:48:07;;;;;;;13.00;10.73;;;;;;;18.92;95.95;101303.72;4903026;29;20446;-62
2023/07/11 02:50:36;;;;;;;12.90;11.23;;;;;;;18.92;96.36;101297.41;4898194;29;20805;-61
2023/07/11 02:53:05;;;;;;;12.73;11.63;;;;;;;18.96;95.89;101296.66;4904230;29;20421;-62
2023/07/11 02:55:38;;;;;;;11.37;10.37;;;;;;;19.08;95.60;101297.41;4899872;29;20471;-63
2023/07/11 02:58:07;;;;;;;12.70;11.50;;;;;;;19.05;94.83;101295.16;4897650;29;20890;-62
2023/07/11 03:00:38;;;;;;;12.73;11.53;;;;;;;19.12;94.68;101296.91;4900630;29;20419;-57
2023/07/11 03:03:07;;;;;;;12.70;11.60;;;;;;;19.05;94.83;101297.06;4907405;29;20472;-58
2023/07/11 03:05:43;;;;;;;12.67;11.50;;;;;;;19.21;94.41;101290.75;4902895;29;20425;-59
2023/07/11 03:08:12;;;;;;;13.40;12.20;;;;;;;19.05;94.14;101292.41;4905748;29;21015;-60
2023/07/11 03:10:41;;;;;;;13.23;11.73;;;;;;;19.24;93.77;101293.00;4899706;29;20434;-61
2023/07/11 03:13:11;;;;;;;12.50;11.37;;;;;;;19.47;92.58;101289.25;4899075;29;20434;-61
2023/07/11 03:15:41;;;;;;;13.60;12.00;;;;;;;19.30;92.43;101299.41;4903634;29;20449;-62
2023/07/11 03:18:11;;;;;;;13.20;11.83;;;;;;;19.18;93.25;101295.91;4895798;29;20428;-61
2023/07/11 03:20:41;;;;;;;13.70;12.23;;;;;;;19.36;92.74;101298.41;4896613;29;20500;-61
2023/07/11 03:23:11;;;;;;;13.00;11.33;;;;;;;19.32;92.64;101298.06;4893715;29;20405;-63
2023/07/11 03:25:40;;;;;;;12.53;11.53;;;;;;;19.29;92.84;101298.56;4897293;29;20431;-62
2023/07/11 03:28:09;;;;;;;12.80;11.60;;;;;;;19.50;92.04;101311.56;4898892;29;20942;-63
2023/07/11 03:30:38;;;;;;;12.93;11.40;;;;;;;19.39;91.56;101301.47;4908160;29;20412;-60
2023/07/11 03:33:09;;;;;;;13.03;11.83;;;;;;;19.35;92.67;101308.56;4906542;29;20961;-58
2023/07/11 03:35:38;;;;;;;13.80;12.50;;;;;;;19.48;92.17;101310.97;4899016;29;20854;-61
2023/07/11 03:38:07;;;;;;;12.63;11.40;;;;;;;19.53;91.28;101315.72;4899063;29;20557;-62
2023/07/11 03:40:36;;;;;;;12.93;11.73;;;;;;;19.84;90.44;101317.00;4898787;29;20540;-61
2023/07/11 03:43:05;;;;;;;15.90;11.63;;;;;;;20.33;86.97;101316.00;4902967;29;20914;-63
2023/07/11 03:45:34;;;;;;;13.00;11.70;;;;;;;20.95;82.90;101323.88;4906121;29;20416;-62
2023/07/11 03:48:03;;;;;;;14.87;11.83;;;;;;;21.95;77.87;101330.44;4899564;29;20497;-61
2023/07/11 03:50:34;;;;;;;11.87;10.50;;;;;;;23.20;71.43;101326.44;4907431;29;20455;-61
2023/07/11 03:53:03;;;;;;;12.57;11.40;;;;;;;24.15;67.12;101334.91;4901706;29;20452;-57
2023/07/11 03:55:32;;;;;;;14.00;12.63;;;;;;;24.42;65.71;101335.38;4901456;29;20441;-62
2023/07/11 03:58:01;;;;;;;13.37;12.23;;;;;;;24.65;64.46;101331.91;4898575;29;21014;-62
2023/07/11 04:00:30;;;;;;;12.33;11.03;;;;;;;24.95;63.40;101332.88;4898305;29;20489;-61
2023/07/11 04:02:59;;;;;;;15.03;11.40;;;;;;;25.22;61.94;101327.69;4906061;29;20424;-58
2023/07/11 04:05:33;;;;;;;13.67;12.57;;;;;;;25.75;60.45;101336.13;4906852;29;20837;-63
2023/07/11 04:08:02;;;;;;;11.93;10.73;;;;;;;25.90;59.22;101324.88;4897754;29;20791;-60
2023/07/11 04:10:32;;;;;;;12.63;11.50;;;;;;;26.00;58.81;101324.72;4907530;29;20496;-64
2023/07/11 04:13:00;;;;;;;12.83;11.73;;;;;;;26.03;59.04;101324.16;4901190;29;20473;-65
2023/07/11 04:15:30;;;;;;;10.70;9.80;;;;;;;26.46;57.49;101324.19;4902129;29;20978;-63
2023/07/11 04:17:58;;;;;;;10.60;9.53;;;;;;;26.17;58.48;101322.31;4915006;29;20471;-63
2023/07/11 04:20:27;;;;;;;10.20;9.30;;;;;;;26.07;58.53;101325.22;4900617;29;20474;-63
2023/07/11 04:22:58;;;;;;;11.00;10.00;;;;;;;26.49;56.74;101323.59;4906273;29;21029;-62
2023/07/11 04:25:27;;;;;;;10.23;8.77;;;;;;;26.30;57.07;101321.63;4904606;29;20430;-64
2023/07/11 04:27:56;;;;;;;12.57;9.40;;;;;;;27.03;54.69;101320.34;4902424;29;20472;-64
2023/07/11 04:30:25;;;;;;;9.33;8.10;;;;;;;27.82;52.09;101316.47;4899160;29;20859;-63
2023/07/11 04:32:54;;;;;;;8.80;8.00;;;;;;;28.30;50.58;101322.50;4898753;29;20521;-60
2023/07/11 04:35:23;;;;;;;10.23;8.80;;;;;;;28.00;50.79;101323.91;4904002;29;20527;-61
2023/07/11 04:37:52;;;;;;;8.43;6.67;;;;;;;27.48;50.87;101327.09;4904283;29;20470;-60
2023/07/11 04:40:23;;;;;;;7.10;6.40;;;;;;;27.61;50.80;101324.38;4903039;29;20472;-62
2023/07/11 04:42:52;;;;;;;6.47;5.80;;;;;;;27.08;51.02;101325.81;4901699;29;20906;-63
2023/07/11 04:45:21;;;;;;;8.20;7.40;;;;;;;27.70;50.29;101315.31;4901168;29;20450;-61
2023/07/11 04:47:49;;;;;;;6.47;5.87;;;;;;;28.49;46.66;101316.78;4900786;29;20807;-63
2023/07/11 04:50:19;;;;;;;9.00;5.57;;;;;;;28.17;47.26;101320.56;4901898;29;20398;-61
2023/07/11 04:52:47;;;;;;;9.00;6.70;;;;;;;28.13;47.55;101324.28;4900627;29;20450;-60
2023/07/11 04:55:17;;;;;;;6.67;5.97;;;;;;;28.78;45.52;101319.22;4898055;29;20878;-61
2023/07/11 04:57:47;;;;;;;8.27;5.50;;;;;;;28.50;45.10;101312.88;4898035;29;20501;-63
2023/07/11 05:00:17;;;;;;;5.40;4.67;;;;;;;29.02;44.01;101321.72;4902361;29;20451;-62
2023/07/11 05:02:46;;;;;;;7.63;5.33;;;;;;;28.99;44.03;101314.84;4901710;29;20580;-63
2023/07/11 05:05:15;;;;;;;5.47;3.70;;;;;;;29.88;41.79;101311.13;4902797;29;20431;-63
2023/07/11 05:07:44;;;;;;;6.93;4.83;;;;;;;29.36;43.70;101313.66;4899151;29;20454;-62
2023/07/11 05:10:13;;;;;;;6.40;4.70;;;;;;;29.49;43.56;101307.16;4902314;29;20945;-58
2023/07/11 05:12:42;;;;;;;5.73;4.80;;;;;;;29.51;42.06;101304.91;4902202;29;20464;-63
2023/07/11 05:15:12;;;;;;;8.50;4.77;;;;;;;29.14;42.31;101302.50;4901069;29;20929;-63
2023/07/11 05:17:41;;;;;;;8.43;4.60;;;;;;;28.98;42.96;101299.25;4897169;29;20820;-62
2023/07/11 05:20:11;;;;;;;8.63;7.63;;;;;;;29.63;42.76;101296.75;4907865;29;20458;-65
2023/07/11 05:22:40;;;;;;;11.27;8.90;;;;;;;30.56;40.61;101305.81;4901349;29;20788;-61
2023/07/11 05:25:10;;;;;;;8.90;6.40;;;;;;;30.85;39.63;101304.34;4910899;29;20961;-64
2023/07/11 05:27:39;;;;;;;8.60;4.23;;;;;;;30.37;40.03;101299.69;4898966;29;20461;-64
2023/07/11 05:30:12;;;;;;;5.23;3.87;;;;;;;30.31;39.95;101300.97;4898315;29;20529;-66
2023/07/11 05:32:42;;;;;;;7.77;4.40;;;;;;;30.26;40.05;101295.53;4898541;29;20841;-64
2023/07/11 05:35:11;;;;;;;7.60;4.23;;;;;;;30.09;40.91;101298.28;4900942;29;20481;-64
2023/07/11 05:37:40;;;;;;;5.33;4.40;;;;;;;30.61;40.48;101299.25;4903972;29;20548;-64
2023/07/11 05:40:10;;;;;;;6.93;4.40;;;;;;;29.84;41.56;101298.97;4900412;29;20465;-63
2023/07/11 05:42:39;;;;;;;8.40;4.53;;;;;;;27.40;46.46;101295.25;4902621;29;20438;-63
2023/07/11 05:45:09;;;;;;;9.20;5.37;;;;;;;25.92;51.19;101286.56;4900349;29;20481;-64
2023/07/11 05:47:38;;;;;;;5.20;4.70;;;;;;;24.93;54.83;101283.31;4901627;29;20455;-61
2023/07/11 05:50:09;;;;;;;5.70;5.13;;;;;;;24.46;57.23;101286.66;4898953;29;20446;-63
2023/07/11 05:52:38;;;;;;;7.10;5.17;;;;;;;24.25;59.36;101285.13;4910958;29;20404;-62
2023/07/11 05:55:08;;;;;;;5.07;4.53;;;;;;;24.12;61.06;101280.16;4902224;29;20443;-64
2023/07/11 05:57:37;;;;;;;5.63;5.10;;;;;;;24.02;62.19;101281.00;4912039;29;20891;-63
2023/07/11 06:00:09;;;;;;;6.93;5.13;;;;;;;23.97;63.15;101275.50;4906846;29;20456;-64
2023/07/11 06:02:40;;;;;;;8.30;6.00;;;;;;;24.10;63.57;101285.16;4897277;29;20434;-61
2023/07/11 06:05:10;;;;;;;7.87;5.20;;;;;;;24.21;63.46;101284.00;4903104;29;20478;-60
2023/07/11 06:07:39;;;;;;;5.83;5.27;;;;;;;24.24;63.26;101278.75;4907325;29;20729;-62
2023/07/11 06:10:09;;;;;;;7.20;6.50;;;;;;;24.04;63.35;101273.28;4901943;29;20453;-64
2023/07/11 06:12:38;;;;;;;7.13;6.40;;;;;;;24.13;63.94;101276.28;4906561;29;20413;-62
2023/07/11 06:15:08;;;;;;;5.67;4.67;;;;;;;24.41;61.22;101272.03;4900615;29;20438;-63
2023/07/11 06:17:37;;;;;;;9.33;4.40;;;;;;;24.39;60.27;101275.09;4897908;29;20462;-63
2023/07/11 06:20:09;;;;;;;10.37;9.30;;;;;;;24.18;59.65;101268.81;4897960;29;20446;-61
2023/07/11 06:22:39;;;;;;;4.83;4.30;;;;;;;24.06;61.38;101265.50;4902595;29;20634;-59
2023/07/11 06:25:09;;;;;;;6.33;5.00;;;;;;;24.17;61.95;101267.16;4904144;29;20472;-58
2023/07/11 06:27:38;;;;;;;8.40;6.30;;;;;;;24.48;61.39;101270.59;4899902;29;21035;-60
2023/07/11 06:30:08;;;;;;;7.23;6.10;;;;;;;24.64;59.84;101263.84;4901148;29;20448;-63
2023/07/11 06:32:37;;;;;;;9.70;5.20;;;;;;;24.50;58.81;101271.13;4898436;29;20457;-63
2023/07/11 06:35:07;;;;;;;6.43;5.27;;;;;;;24.60;57.87;101265.53;4894932;29;20439;-61
2023/07/11 06:37:37;;;;;;;7.30;6.37;;;;;;;24.34;58.74;101266.81;4896953;29;20499;-65
2023/07/11 06:40:08;;;;;;;6.17;5.63;;;;;;;24.49;58.54;101266.75;4895514;29;20455;-63
2023/07/11 06:42:38;;;;;;;8.73;6.70;;;;;;;24.64;58.64;101271.34;4902052;29;20484;-61
2023/07/11 06:45:08;;;;;;;10.87;5.43;;;;;;;24.87;57.58;101267.88;4906955;29;20825;-61
2023/07/11 06:47:37;;;;;;;6.63;5.80;;;;;;;24.88;57.23;101266.78;4902422;29;20506;-62
2023/07/11 06:50:07;;;;;;;8.00;5.80;;;;;;;24.90;56.04;101263.69;4907449;29;20419;-64
2023/07/11 06:52:36;;;;;;;5.10;4.70;;;;;;;24.97;55.59;101259.50;4905252;29;20854;-61
2023/07/11 06:55:08;;;;;;;6.13;5.00;;;;;;;25.01;56.84;101265.28;4904253;29;20473;-63
2023/07/11 06:57:36;;;;;;;7.20;4.53;;;;;;;25.18;55.93;101256.53;4907219;29;20831;-62
2023/07/11 07:00:08;;;;;;;4.90;4.40;;;;;;;25.33;55.18;101261.94;4904782;29;20456;-63
2023/07/11 07:02:37;;;;;;;8.33;5.13;;;;;;;25.18;55.38;101257.38;4906605;29;20556;-63
2023/07/11 07:05:07;;;;;;;7.73;4.33;;;;;;;25.38;54.52;101265.50;4907384;29;20474;-61
2023/07/11 07:07:36;;;;;;;6.80;5.23;;;;;;;25.31;55.24;101262.25;4906334;29;20512;-64
2023/07/11 07:10:07;;;;;;;5.30;4.80;;;;;;;25.53;52.71;101265.34;4909763;29;20426;-60
2023/07/11 07:12:36;;;;;;;7.27;4.47;;;;;;;25.35;53.02;101260.53;4913152;29;20886;-60
2023/07/11 07:15:06;;;;;;;6.87;4.23;;;;;;;25.28;53.13;101261.97;4910315;29;20808;-64
2023/07/11 07:17:35;;;;;;;5.20;3.50;;;;;;;25.41;53.33;101259.38;4898312;29;20494;-64
2023/07/11 07:20:04;;;;;;;4.33;3.83;;;;;;;25.63;52.95;101249.75;4897275;29;20534;-64
2023/07/11 07:22:34;;;;;;;5.37;3.67;;;;;;;25.60;50.86;101256.72;4901024;29;20790;-64
2023/07/11 07:25:09;;;;;;;7.40;4.00;;;;;;;25.51;50.49;101256.47;4898089;29;20478;-65
2023/07/11 07:27:52;;;;;;;6.80;3.53;;;;;;;25.78;50.77;101246.81;4904884;29;20573;-62
2023/07/11 07:30:21;;;;;;;6.10;3.87;;;;;;;25.93;49.97;101250.22;4900901;29;20435;-63
2023/07/11 07:32:50;;;;;;;5.73;3.77;;;;;;;26.10;48.91;101246.13;4900723;29;20409;-59
2023/07/11 07:35:19;;;;;;;4.40;4.00;;;;;;;26.30;47.71;101246.72;4901190;29;20443;-62
2023/07/11 07:37:48;;;;;;;7.43;4.10;;;;;;;26.09;49.25;101242.56;4898340;29;20433;-61
2023/07/11 07:40:19;;;;;;;6.83;4.00;;;;;;;25.93;49.65;101249.41;4903839;29;20496;-62
2023/07/11 07:42:48;;;;;;;5.07;4.40;;;;;;;26.12;48.69;101241.13;4896079;29;20448;-61
2023/07/11 07:45:18;;;;;;;6.97;4.17;;;;;;;26.12;46.75;101230.84;4924777;23;20524;-81
2023/07/11 07:47:47;;;;;;;5.13;3.40;;;;;;;26.24;47.10;101244.28;4920589;28;20486;-81
2023/07/11 07:50:17;;;;;;;6.70;3.57;;;;;;;26.39;46.32;101244.91;4922831;28;20457;-83
2023/07/11 07:52:46;;;;;;;5.30;3.83;;;;;;;26.48;47.62;101244.25;4932105;28;20454;-81
2023/07/11 07:55:15;;;;;;;4.50;4.10;;;;;;;26.47;48.06;101237.88;4915033;29;20424;-82
2023/07/11 07:57:46;;;;;;;4.80;3.67;;;;;;;26.69;47.53;101240.03;4909421;29;20755;-80
2023/07/11 08:00:16;;;;;;;4.50;3.80;;;;;;;26.67;47.22;101233.97;4916037;28;20422;-82
2023/07/11 08:02:51;;;;;;;6.80;4.33;;;;;;;26.66;46.92;101237.88;4920961;29;20461;-83
2023/07/11 08:05:20;;;;;;;8.53;4.03;;;;;;;26.70;44.95;101225.03;4907581;29;20434;-81
2023/07/11 08:07:50;;;;;;;7.70;4.53;;;;;;;26.85;44.57;101233.13;4914071;29;20448;-82
2023/07/11 08:10:20;;;;;;;6.23;3.40;;;;;;;26.91;44.90;101225.56;4898441;29;20470;-82
2023/07/11 08:12:54;;;;;;;4.50;3.47;;;;;;;26.67;45.21;101222.88;4915358;29;20477;-83
2023/07/11 08:15:23;;;;;;;4.10;3.10;;;;;;;26.98;44.67;101226.00;4901253;29;20459;-82
2023/07/11 08:17:52;;;;;;;4.20;3.07;;;;;;;26.88;44.32;101221.44;4903887;29;20486;-82
2023/07/11 08:20:29;;;;;;;5.40;3.40;;;;;;;26.80;44.00;101225.72;4903663;29;20441;-82
2023/07/11 08:23:05;;;;;;;6.27;3.00;;;;;;;26.88;41.74;101218.66;4901356;29;20481;-81
2023/07/11 08:25:36;;;;;;;3.40;2.43;;;;;;;26.98;40.87;101221.25;4917512;29;20893;-82
2023/07/11 08:28:13;;;;;;;5.03;2.93;;;;;;;27.03;41.24;101209.25;4896802;29;20409;-83
2023/07/11 08:30:50;;;;;;;4.53;2.83;;;;;;;27.37;41.50;101211.66;4907471;29;20531;-82
2023/07/11 08:33:21;;;;;;;3.70;2.40;;;;;;;27.61;40.40;101206.78;4902071;29;20502;-81
2023/07/11 08:35:59;;;;;;;3.37;3.07;;;;;;;27.50;40.72;101213.66;4899228;29;20952;-83
2023/07/11 08:38:33;;;;;;;8.93;3.40;;;;;;;27.39;40.74;101209.44;4898786;29;20505;-82
2023/07/11 08:41:19;;;;;;;6.63;2.47;;;;;;;27.69;39.38;101203.31;4916818;29;20941;-82
2023/07/11 08:43:58;;;;;;;5.97;3.40;;;;;;;27.88;39.89;101198.44;4895433;29;20809;-81
2023/07/11 08:46:40;;;;;;;6.77;3.00;;;;;;;27.88;38.32;101195.66;4891974;29;20477;-82
2023/07/11 08:49:19;;;;;;;5.00;2.93;;;;;;;28.02;39.08;101193.69;4918614;29;20434;-82
2023/07/11 08:51:57;;;;;;;3.80;2.40;;;;;;;28.36;38.44;101196.00;4917353;29;20591;-83
2023/07/11 08:54:38;;;;;;;4.40;2.47;;;;;;;28.02;37.17;101190.91;4911180;29;20476;-82
2023/07/11 08:57:22;;;;;;;4.47;2.87;;;;;;;27.88;37.12;101189.28;4902097;29;20446;-83
2023/07/11 09:00:09;;;;;;;3.63;2.40;;;;;;;28.06;37.25;101183.59;4925253;29;20436;-82
2023/07/11 09:02:55;;;;;;;10.63;3.17;;;;;;;27.88;37.09;101173.41;4913621;29;20472;-83
2023/07/11 09:05:42;;;;;;;4.80;3.10;;;;;;;28.01;37.79;101172.56;4910434;29;20494;-83
2023/07/11 09:08:17;;;;;;;4.60;2.50;;;;;;;28.29;37.42;101167.78;4906435;29;20466;-83
2023/07/11 09:11:02;;;;;;;4.60;2.93;;;;;;;28.35;37.48;101165.69;4922737;29;20453;-82
2023/07/11 09:13:58;;;;;;;4.73;2.47;;;;;;;28.22;38.16;101161.00;4929303;29;20450;-82
2023/07/11 09:16:41;;;;;;;6.00;2.90;;;;;;;28.38;37.44;101159.50;4913943;29;20454;-82
2023/07/11 09:19:27;;;;;;;7.93;3.97;;;;;;;28.44;36.69;101156.28;4916070;29;20454;-82
2023/07/11 09:22:05;;;;;;;4.63;2.43;;;;;;;28.02;36.91;101160.31;4896434;29;20554;-82
2023/07/11 09:24:46;;;;;;;3.43;2.40;;;;;;;27.88;36.58;101151.16;4900201;29;20466;-82
2023/07/11 09:27:24;;;;;;;14.63;3.13;;;;;;;28.06;36.91;101158.53;4895033;29;20431;-82
2023/07/11 09:29:55;;;;;;;4.77;3.10;;;;;;;28.14;36.56;101147.81;4911130;29;20479;-82
2023/07/11 09:32:35;;;;;;;6.50;3.43;;;;;;;27.91;36.58;101144.97;4911540;29;20518;-81
2023/07/11 09:35:24;;;;;;;4.70;2.97;;;;;;;28.12;37.35;101150.94;4900043;29;20434;-82
2023/07/11 09:37:57;;;;;;;4.33;2.67;;;;;;;28.35;37.04;101143.44;4914741;29;20474;-83
2023/07/11 09:40:33;;;;;;;5.47;2.90;;;;;;;28.46;36.83;101150.41;4900743;29;20407;-82
2023/07/11 09:43:03;;;;;;;5.50;3.83;;;;;;;28.39;36.11;101148.06;4899955;29;20466;-82
2023/07/11 09:45:41;;;;;;;6.80;2.70;;;;;;;28.53;35.21;101143.25;4901135;29;20495;-82
2023/07/11 09:48:15;;;;;;;4.53;2.57;;;;;;;28.48;35.43;101142.53;4900024;29;20458;-82
2023/07/11 09:51:02;;;;;;;2.70;2.23;;;;;;;28.49;35.87;101138.63;4911535;29;20416;-82
2023/07/11 09:53:36;;;;;;;5.77;2.40;;;;;;;28.57;35.57;101137.03;4920222;29;20442;-83
2023/07/11 09:56:12;;;;;;;5.87;2.70;;;;;;;28.53;36.10;101128.50;4913033;29;20568;-82
2023/07/11 09:58:46;;;;;;;2.90;2.50;;;;;;;28.47;34.96;101124.19;4921677;29;20447;-82
2023/07/11 10:01:26;;;;;;;3.47;2.30;;;;;;;28.66;36.23;101116.47;4900514;29;20461;-82
2023/07/11 10:03:59;;;;;;;6.57;3.13;;;;;;;28.48;36.13;101121.09;4898871;29;20561;-82
2023/07/11 10:06:57;;;;;;;4.00;3.20;;;;;;;28.48;36.77;101114.72;4898265;29;20485;-82
2023/07/11 10:09:46;;;;;;;5.53;3.00;;;;;;;28.36;37.07;101112.50;4893702;29;20463;-81
2023/07/11 10:12:21;;;;;;;3.60;2.53;;;;;;;28.79;36.08;101117.56;4902386;29;21014;-83
2023/07/11 10:15:04;;;;;;;4.40;2.20;;;;;;;28.81;35.92;101102.16;4914802;29;20436;-82
2023/07/11 10:17:39;;;;;;;4.77;2.90;;;;;;;28.94;34.65;101104.06;4914277;29;20438;-83
2023/07/11 10:20:49;;;;;;;2.73;2.33;;;;;;;29.00;35.27;101092.78;4919837;28;20520;-81
2023/07/11 10:23:28;;;;;;;9.00;2.97;;;;;;;29.11;35.56;101091.34;4923532;29;20529;-82
2023/07/11 10:26:27;;;;;;;3.60;2.60;;;;;;;29.10;35.64;101087.72;4934247;29;20482;-81
2023/07/11 10:29:07;;;;;;;6.87;3.07;;;;;;;29.30;35.62;101076.03;4918484;28;20470;-83
2023/07/11 10:31:55;;;;;;;3.50;3.20;;;;;;;29.48;36.36;101076.09;4921107;28;20446;-83
2023/07/11 10:34:32;;;;;;;9.53;2.90;;;;;;;29.41;34.95;101082.13;4933676;28;20430;-82
2023/07/11 10:37:12;;;;;;;7.60;4.43;;;;;;;29.27;35.08;101070.25;4923245;28;20490;-82
2023/07/11 10:39:48;;;;;;;4.77;3.10;;;;;;;28.85;36.54;101066.16;4934202;28;20525;-83
2023/07/11 10:42:31;;;;;;;5.63;3.33;;;;;;;28.60;36.52;101061.25;4915778;28;20489;-82
2023/07/11 10:45:27;;;;;;;11.63;3.60;;;;;;;28.66;36.44;101066.34;4902475;29;20771;-81
2023/07/11 10:48:32;;;;;;;5.27;3.27;;;;;;;29.25;35.76;101072.53;4904327;29;20521;-82
2023/07/11 10:51:09;;;;;;;6.80;3.97;;;;;;;29.13;34.90;101069.56;4937274;29;20450;-82
2023/07/11 10:53:43;;;;;;;6.70;3.67;;;;;;;29.18;35.47;101070.25;4933426;28;20465;-82
2023/07/11 10:56:18;;;;;;;5.17;3.60;;;;;;;29.14;35.39;101055.31;4924753;29;20496;-82
2023/07/11 10:58:53;;;;;;;3.67;2.57;;;;;;;29.32;35.37;101053.41;4906979;29;20438;-82
2023/07/11 11:01:34;;;;;;;7.17;3.00;;;;;;;28.91;35.85;101056.50;4902833;29;20426;-82
2023/07/11 11:04:15;;;;;;;6.00;4.17;;;;;;;29.09;36.52;101051.84;4907011;29;20480;-82
2023/07/11 11:06:54;;;;;;;4.30;3.03;;;;;;;29.11;35.81;101043.97;4902890;29;20549;-81
2023/07/11 11:09:37;;;;;;;7.73;3.13;;;;;;;28.94;35.77;101036.38;4900393;29;20430;-82
2023/07/11 11:12:20;;;;;;;8.17;3.70;;;;;;;28.97;36.32;101032.94;4902487;29;20490;-83
2023/07/11 11:14:55;;;;;;;6.93;3.97;;;;;;;29.14;35.77;101033.03;4901938;29;20462;-82
2023/07/11 11:17:35;;;;;;;6.77;3.57;;;;;;;29.27;36.00;101034.03;4900388;29;20467;-82
2023/07/11 11:20:14;;;;;;;4.73;3.23;;;;;;;29.16;35.69;101018.75;4900748;29;20493;-82
2023/07/11 11:22:56;;;;;;;4.93;4.07;;;;;;;29.46;35.33;101022.63;4902310;29;20785;-82
2023/07/11 11:25:32;;;;;;;3.83;2.80;;;;;;;29.32;35.50;101014.41;4906082;29;20495;-82
2023/07/11 11:28:14;;;;;;;7.53;5.70;;;;;;;29.41;34.98;101019.97;4909385;29;20421;-83
2023/07/11 11:30:53;;;;;;;5.80;3.23;;;;;;;29.49;34.99;101011.63;4927891;28;20522;-82
2023/07/11 11:33:45;;;;;;;6.37;3.30;;;;;;;29.38;34.57;101007.53;4921739;28;20438;-82
2023/07/11 11:36:30;;;;;;;5.50;4.20;;;;;;;29.39;35.44;101009.16;4921707;28;20461;-83
2023/07/11 11:39:22;;;;;;;8.60;3.70;;;;;;;29.43;35.56;101001.78;4916786;29;20438;-81
2023/07/11 11:41:58;;;;;;;9.27;3.83;;;;;;;29.52;34.77;100993.44;4911491;29;20434;-82
2023/07/11 11:44:54;;;;;;;5.53;3.50;;;;;;;29.62;34.85;100993.13;4929679;28;20518;-82
2023/07/11 11:47:31;;;;;;;5.97;3.50;;;;;;;29.73;34.73;100986.88;4912136;29;20463;-81